Time,TemperatureF,DewpointF,PressureIn,WindDirection,WindDirectionDegrees,WindSpeedMPH,WindSpeedGustMPH,Humidity,HourlyPrecipIn,Conditions,Clouds,dailyrainin,SolarRadiationWatts/m^2,SoftwareType,DateUTC
2013-03-03 00:01:00,45.0,21.0,30.19,WSW,240,12.0,13.0,38,0.00,,,-99.99,0.000000,,2013-03-03 06:01:00,
2013-03-03 00:11:00,45.0,20.0,30.18,WSW,242,12.0,14.0,36,0.00,,,-99.99,0.000000,,2013-03-03 06:11:00,
2013-03-03 00:21:00,45.0,20.0,30.18,WSW,242,12.0,14.0,36,0.00,,,-99.99,0.000000,,2013-03-03 06:21:00,
2013-03-03 00:31:00,45.0,20.0,30.18,WSW,242,12.0,14.0,36,0.00,,,-99.99,0.000000,,2013-03-03 06:31:00,
2013-03-03 00:42:00,45.0,20.0,30.17,SW,236,13.0,15.0,36,0.00,,,-99.99,0.000000,,2013-03-03 06:42:00,
2013-03-03 00:52:00,45.0,20.0,30.17,SW,236,13.0,15.0,36,0.00,,,-99.99,0.000000,,2013-03-03 06:52:00,
2013-03-03 01:01:00,45.0,20.0,30.17,SW,236,13.0,15.0,36,0.00,,,-99.99,0.000000,,2013-03-03 07:01:00,
2013-03-03 01:11:00,46.0,19.0,30.16,SW,228,12.0,13.0,33,0.00,,,-99.99,0.000000,,2013-03-03 07:11:00,
2013-03-03 01:21:00,46.0,19.0,30.16,SW,228,12.0,13.0,33,0.00,,,-99.99,0.000000,,2013-03-03 07:21:00,
2013-03-03 01:31:00,46.0,19.0,30.16,SW,228,12.0,13.0,33,0.00,,,-99.99,0.000000,,2013-03-03 07:31:00,
2013-03-03 01:42:00,44.0,19.0,30.15,SW,229,13.0,15.0,36,0.00,,,-99.99,0.000000,,2013-03-03 07:42:00,
2013-03-03 01:51:00,44.0,19.0,30.15,SW,229,13.0,15.0,36,0.00,,,-99.99,0.000000,,2013-03-03 07:51:00,
2013-03-03 02:01:00,44.0,19.0,30.15,SW,229,13.0,15.0,36,0.00,,,-99.99,0.000000,,2013-03-03 08:01:00,
2013-03-03 02:11:00,45.0,19.0,30.15,SW,227,13.0,15.0,35,0.00,,,-99.99,0.000000,,2013-03-03 08:11:00,
2013-03-03 02:21:00,45.0,19.0,30.15,SW,227,13.0,15.0,35,0.00,,,-99.99,0.000000,,2013-03-03 08:21:00,
2013-03-03 02:31:00,45.0,19.0,30.15,SW,227,13.0,15.0,35,0.00,,,-99.99,0.000000,,2013-03-03 08:31:00,
2013-03-03 02:41:00,46.0,18.0,30.14,SW,224,14.0,17.0,33,0.00,,,-99.99,0.000000,,2013-03-03 08:41:00,
2013-03-03 02:53:00,46.0,18.0,30.14,SW,224,14.0,17.0,33,0.00,,,-99.99,0.000000,,2013-03-03 08:53:00,
2013-03-03 03:01:00,46.0,18.0,30.14,SW,224,14.0,17.0,33,0.00,,,-99.99,0.000000,,2013-03-03 09:01:00,
2013-03-03 03:11:00,46.0,18.0,30.12,SW,228,15.0,17.0,32,0.00,,,-99.99,0.000000,,2013-03-03 09:11:00,
2013-03-03 03:21:00,46.0,18.0,30.12,SW,228,15.0,17.0,32,0.00,,,-99.99,0.000000,,2013-03-03 09:21:00,
2013-03-03 03:32:00,46.0,18.0,30.12,SW,228,15.0,17.0,32,0.00,,,-99.99,0.000000,,2013-03-03 09:32:00,
2013-03-03 03:41:00,45.0,18.0,30.11,SW,232,15.0,17.0,33,0.00,,,-99.99,0.000000,,2013-03-03 09:41:00,
2013-03-03 03:51:00,45.0,18.0,30.11,SW,232,15.0,17.0,33,0.00,,,-99.99,0.000000,,2013-03-03 09:51:00,
2013-03-03 04:01:00,45.0,18.0,30.11,SW,232,15.0,17.0,33,0.00,,,-99.99,0.000000,,2013-03-03 10:01:00,
2013-03-03 04:11:00,43.0,18.0,30.10,SW,235,15.0,18.0,36,0.00,,,-99.99,0.000000,,2013-03-03 10:11:00,
2013-03-03 04:21:00,43.0,18.0,30.10,SW,235,15.0,18.0,36,0.00,,,-99.99,0.000000,,2013-03-03 10:21:00,
2013-03-03 04:32:00,43.0,18.0,30.10,SW,235,15.0,18.0,36,0.00,,,-99.99,0.000000,,2013-03-03 10:32:00,
2013-03-03 04:42:00,43.0,18.0,30.09,SW,230,15.0,18.0,36,0.00,,,-99.99,0.000000,,2013-03-03 10:42:00,
2013-03-03 04:52:00,43.0,18.0,30.09,SW,230,15.0,18.0,36,0.00,,,-99.99,0.000000,,2013-03-03 10:52:00,
2013-03-03 05:01:00,43.0,18.0,30.09,SW,230,15.0,18.0,36,0.00,,,-99.99,0.000000,,2013-03-03 11:01:00,
2013-03-03 05:11:00,41.0,19.0,30.08,SW,228,14.0,15.0,40,0.00,,,-99.99,0.000000,,2013-03-03 11:11:00,
2013-03-03 05:21:00,41.0,19.0,30.08,SW,228,14.0,15.0,40,0.00,,,-99.99,0.000000,,2013-03-03 11:21:00,
2013-03-03 05:32:00,41.0,19.0,30.08,SW,228,14.0,15.0,40,0.00,,,-99.99,0.000000,,2013-03-03 11:32:00,
2013-03-03 05:42:00,41.0,19.0,30.07,SW,224,15.0,19.0,41,0.00,,,-99.99,0.000000,,2013-03-03 11:42:00,
2013-03-03 05:52:00,41.0,19.0,30.07,SW,224,15.0,19.0,41,0.00,,,-99.99,0.000000,,2013-03-03 11:52:00,
2013-03-03 06:01:00,41.0,19.0,30.07,SW,224,15.0,19.0,41,0.00,,,-99.99,0.000000,,2013-03-03 12:01:00,
2013-03-03 06:11:00,41.0,19.0,30.06,SW,217,15.0,20.0,40,0.00,,,-99.99,0.000000,,2013-03-03 12:11:00,
2013-03-03 06:21:00,41.0,19.0,30.06,SW,217,15.0,20.0,40,0.00,,,-99.99,0.000000,,2013-03-03 12:21:00,
2013-03-03 06:32:00,41.0,19.0,30.06,SW,217,15.0,20.0,40,0.00,,,-99.99,0.000000,,2013-03-03 12:32:00,
2013-03-03 06:43:00,40.0,19.0,30.06,SW,220,15.0,18.0,42,0.00,,,-99.99,0.000000,,2013-03-03 12:43:00,
2013-03-03 06:52:00,40.0,19.0,30.06,SW,220,15.0,18.0,42,0.00,,,-99.99,0.000000,,2013-03-03 12:52:00,
2013-03-03 07:01:00,40.0,19.0,30.06,SW,220,15.0,18.0,42,0.00,,,-99.99,0.000000,,2013-03-03 13:01:00,
2013-03-03 07:11:00,40.0,19.0,30.05,SW,217,16.0,18.0,42,0.00,,,-99.99,0.552000,,2013-03-03 13:11:00,
2013-03-03 07:21:00,40.0,19.0,30.05,SW,217,16.0,18.0,42,0.00,,,-99.99,0.552000,,2013-03-03 13:21:00,
2013-03-03 07:32:00,40.0,19.0,30.05,SW,217,16.0,18.0,42,0.00,,,-99.99,0.552000,,2013-03-03 13:32:00,
2013-03-03 07:42:00,41.0,19.0,30.04,SW,214,17.0,20.0,41,0.00,,,-99.99,51.419998,,2013-03-03 13:42:00,
2013-03-03 07:51:00,41.0,19.0,30.04,SW,214,17.0,20.0,41,0.00,,,-99.99,51.419998,,2013-03-03 13:51:00,
2013-03-03 08:01:00,41.0,19.0,30.04,SW,214,17.0,20.0,41,0.00,,,-99.99,51.419998,,2013-03-03 14:01:00,
2013-03-03 08:11:00,42.0,18.0,30.04,SW,218,17.0,20.0,37,0.00,,,-99.99,69.360001,,2013-03-03 14:11:00,
2013-03-03 08:21:00,42.0,18.0,30.04,SW,218,17.0,20.0,37,0.00,,,-99.99,69.360001,,2013-03-03 14:21:00,
2013-03-03 08:32:00,42.0,18.0,30.04,SW,218,17.0,20.0,37,0.00,,,-99.99,69.360001,,2013-03-03 14:32:00,
2013-03-03 08:42:00,44.0,18.0,30.04,SW,214,18.0,21.0,35,0.00,,,-99.99,122.099998,,2013-03-03 14:42:00,
2013-03-03 08:52:00,44.0,18.0,30.04,SW,214,18.0,21.0,35,0.00,,,-99.99,122.099998,,2013-03-03 14:52:00,
2013-03-03 09:01:00,44.0,18.0,30.04,SW,214,18.0,21.0,35,0.00,,,-99.99,122.099998,,2013-03-03 15:01:00,
2013-03-03 09:11:00,47.0,19.0,30.03,SW,217,18.0,21.0,32,0.00,,,-99.99,152.600006,,2013-03-03 15:11:00,
2013-03-03 09:22:00,47.0,19.0,30.03,SW,217,18.0,21.0,32,0.00,,,-99.99,152.600006,,2013-03-03 15:22:00,
2013-03-03 09:32:00,47.0,19.0,30.03,SW,217,18.0,21.0,32,0.00,,,-99.99,152.600006,,2013-03-03 15:32:00,
2013-03-03 09:42:00,51.0,20.0,30.02,SW,221,17.0,22.0,30,0.00,,,-99.99,446.100006,,2013-03-03 15:42:00,
2013-03-03 09:52:00,51.0,20.0,30.02,SW,221,17.0,22.0,30,0.00,,,-99.99,446.100006,,2013-03-03 15:52:00,
2013-03-03 10:01:00,51.0,20.0,30.02,SW,221,17.0,22.0,30,0.00,,,-99.99,446.100006,,2013-03-03 16:01:00,
2013-03-03 10:12:00,54.0,19.0,30.01,SW,223,21.0,26.0,24,0.00,,,-99.99,530.500000,,2013-03-03 16:12:00,
2013-03-03 10:21:00,54.0,19.0,30.01,SW,223,21.0,26.0,24,0.00,,,-99.99,530.500000,,2013-03-03 16:21:00,
2013-03-03 10:31:00,54.0,19.0,30.01,SW,223,21.0,26.0,24,0.00,,,-99.99,530.500000,,2013-03-03 16:31:00,
2013-03-03 10:42:00,58.0,21.0,30.00,SW,222,19.0,24.0,23,0.00,,,-99.99,611.400024,,2013-03-03 16:42:00,
2013-03-03 10:52:00,58.0,21.0,30.00,SW,222,19.0,24.0,23,0.00,,,-99.99,611.400024,,2013-03-03 16:52:00,
2013-03-03 11:01:00,58.0,21.0,30.00,SW,222,19.0,24.0,23,0.00,,,-99.99,611.400024,,2013-03-03 17:01:00,
2013-03-03 11:11:00,61.0,21.0,29.99,SW,225,19.0,24.0,20,0.00,,,-99.99,678.599976,,2013-03-03 17:11:00,
2013-03-03 11:22:00,61.0,21.0,29.99,SW,225,19.0,24.0,20,0.00,,,-99.99,678.599976,,2013-03-03 17:22:00,
2013-03-03 11:32:00,61.0,21.0,29.99,SW,225,19.0,24.0,20,0.00,,,-99.99,678.599976,,2013-03-03 17:32:00,
2013-03-03 11:42:00,65.0,22.0,29.96,SW,218,19.0,24.0,19,0.00,,,-99.99,732.000000,,2013-03-03 17:42:00,
2013-03-03 11:52:00,65.0,22.0,29.96,SW,218,19.0,24.0,19,0.00,,,-99.99,732.000000,,2013-03-03 17:52:00,
2013-03-03 12:01:00,65.0,22.0,29.96,SW,218,19.0,24.0,19,0.00,,,-99.99,732.000000,,2013-03-03 18:01:00,
2013-03-03 12:11:00,68.0,21.0,29.94,SW,220,20.0,25.0,16,0.00,,,-99.99,783.000000,,2013-03-03 18:11:00,
2013-03-03 12:21:00,68.0,21.0,29.94,SW,220,20.0,25.0,16,0.00,,,-99.99,783.000000,,2013-03-03 18:21:00,
2013-03-03 12:31:00,68.0,21.0,29.94,SW,220,20.0,25.0,16,0.00,,,-99.99,783.000000,,2013-03-03 18:31:00,
2013-03-03 12:42:00,72.0,20.0,29.91,SW,223,22.0,30.0,14,0.00,,,-99.99,841.000000,,2013-03-03 18:42:00,
2013-03-03 12:52:00,72.0,20.0,29.91,SW,223,22.0,30.0,14,0.00,,,-99.99,841.000000,,2013-03-03 18:52:00,
2013-03-03 13:01:00,72.0,20.0,29.91,SW,223,22.0,30.0,14,0.00,,,-99.99,841.000000,,2013-03-03 19:01:00,
2013-03-03 13:11:00,75.0,19.0,29.89,SW,223,25.0,31.0,12,0.00,,,-99.99,838.000000,,2013-03-03 19:11:00,
2013-03-03 13:21:00,75.0,19.0,29.89,SW,223,25.0,31.0,12,0.00,,,-99.99,838.000000,,2013-03-03 19:21:00,
2013-03-03 13:32:00,75.0,19.0,29.89,SW,223,25.0,31.0,12,0.00,,,-99.99,838.000000,,2013-03-03 19:32:00,
2013-03-03 13:42:00,76.0,19.0,29.86,SSW,210,25.0,31.0,11,0.00,,,-99.99,807.000000,,2013-03-03 19:42:00,
2013-03-03 13:51:00,76.0,19.0,29.86,SSW,210,25.0,31.0,11,0.00,,,-99.99,807.000000,,2013-03-03 19:51:00,
2013-03-03 14:01:00,76.0,19.0,29.86,SSW,210,25.0,31.0,11,0.00,,,-99.99,807.000000,,2013-03-03 20:01:00,
2013-03-03 14:11:00,77.0,19.0,29.84,SW,226,26.0,34.0,10,0.00,,,-99.99,785.000000,,2013-03-03 20:11:00,
2013-03-03 14:21:00,77.0,19.0,29.84,SW,226,26.0,34.0,10,0.00,,,-99.99,785.000000,,2013-03-03 20:21:00,
2013-03-03 14:32:00,77.0,19.0,29.84,SW,226,26.0,34.0,10,0.00,,,-99.99,785.000000,,2013-03-03 20:32:00,
2013-03-03 14:42:00,78.0,17.0,29.82,SW,224,23.0,28.0,9,0.00,,,-99.99,738.000000,,2013-03-03 20:42:00,
2013-03-03 14:52:00,78.0,17.0,29.82,SW,224,23.0,28.0,9,0.00,,,-99.99,738.000000,,2013-03-03 20:52:00,
2013-03-03 15:01:00,78.0,17.0,29.82,SW,224,23.0,28.0,9,0.00,,,-99.99,738.000000,,2013-03-03 21:01:00,
2013-03-03 15:11:00,78.0,16.0,29.80,SW,220,26.0,35.0,9,0.00,,,-99.99,424.200012,,2013-03-03 21:11:00,
2013-03-03 15:22:00,78.0,16.0,29.80,SW,220,26.0,35.0,9,0.00,,,-99.99,424.200012,,2013-03-03 21:22:00,
2013-03-03 15:32:00,78.0,16.0,29.80,SW,220,26.0,35.0,9,0.00,,,-99.99,424.200012,,2013-03-03 21:32:00,
2013-03-03 15:42:00,80.0,15.0,29.78,SW,234,26.0,35.0,8,0.00,,,-99.99,765.000000,,2013-03-03 21:42:00,
2013-03-03 15:52:00,80.0,15.0,29.78,SW,234,26.0,35.0,8,0.00,,,-99.99,765.000000,,2013-03-03 21:52:00,
2013-03-03 16:01:00,80.0,15.0,29.78,SW,234,26.0,35.0,8,0.00,,,-99.99,765.000000,,2013-03-03 22:01:00,
2013-03-03 16:11:00,78.0,14.0,29.77,SW,226,22.0,29.0,8,0.00,,,-99.99,518.500000,,2013-03-03 22:11:00,
2013-03-03 16:22:00,78.0,14.0,29.77,SW,226,22.0,29.0,8,0.00,,,-99.99,518.500000,,2013-03-03 22:22:00,
2013-03-03 16:32:00,78.0,14.0,29.77,SW,226,22.0,29.0,8,0.00,,,-99.99,518.500000,,2013-03-03 22:32:00,
2013-03-03 16:42:00,78.0,8.0,29.76,WSW,239,31.0,38.0,6,0.00,,,-99.99,215.699997,,2013-03-03 22:42:00,
2013-03-03 16:52:00,78.0,8.0,29.76,WSW,239,31.0,38.0,6,0.00,,,-99.99,215.699997,,2013-03-03 22:52:00,
2013-03-03 17:01:00,78.0,8.0,29.76,WSW,239,31.0,38.0,6,0.00,,,-99.99,215.699997,,2013-03-03 23:01:00,
2013-03-03 17:11:00,77.0,15.0,29.75,SW,221,16.0,20.0,9,0.00,,,-99.99,200.899994,,2013-03-03 23:11:00,
2013-03-03 17:21:00,77.0,15.0,29.75,SW,221,16.0,20.0,9,0.00,,,-99.99,200.899994,,2013-03-03 23:21:00,
2013-03-03 17:31:00,77.0,15.0,29.75,SW,221,16.0,20.0,9,0.00,,,-99.99,200.899994,,2013-03-03 23:31:00,
2013-03-03 17:42:00,76.0,7.0,29.74,WSW,246,19.0,27.0,6,0.00,,,-99.99,69.580002,,2013-03-03 23:42:00,
2013-03-03 17:52:00,76.0,7.0,29.74,WSW,246,19.0,27.0,6,0.00,,,-99.99,69.580002,,2013-03-03 23:52:00,
2013-03-03 18:01:00,76.0,7.0,29.74,WSW,246,19.0,27.0,6,0.00,,,-99.99,69.580002,,2013-03-04 00:01:00,
2013-03-03 18:11:00,75.0,10.0,29.74,SW,236,18.0,22.0,8,0.00,,,-99.99,41.630001,,2013-03-04 00:11:00,
2013-03-03 18:21:00,75.0,10.0,29.74,SW,236,18.0,22.0,8,0.00,,,-99.99,41.630001,,2013-03-04 00:21:00,
2013-03-03 18:32:00,75.0,10.0,29.74,SW,236,18.0,22.0,8,0.00,,,-99.99,41.630001,,2013-03-04 00:32:00,
2013-03-03 18:42:00,74.0,10.0,29.74,SW,236,18.0,25.0,8,0.00,,,-99.99,16.520000,,2013-03-04 00:42:00,
2013-03-03 18:52:00,74.0,10.0,29.74,SW,236,18.0,25.0,8,0.00,,,-99.99,16.520000,,2013-03-04 00:52:00,
2013-03-03 19:01:00,74.0,10.0,29.74,SW,236,18.0,25.0,8,0.00,,,-99.99,16.520000,,2013-03-04 01:01:00,
2013-03-03 19:11:00,73.0,10.0,29.74,WSW,240,22.0,26.0,8,0.00,,,-99.99,0.187000,,2013-03-04 01:11:00,
2013-03-03 19:21:00,73.0,10.0,29.74,WSW,240,22.0,26.0,8,0.00,,,-99.99,0.187000,,2013-03-04 01:21:00,
2013-03-03 19:31:00,73.0,10.0,29.74,WSW,240,22.0,26.0,8,0.00,,,-99.99,0.187000,,2013-03-04 01:31:00,
2013-03-03 19:42:00,72.0,9.0,29.73,SW,233,22.0,28.0,8,0.00,,,-99.99,0.000000,,2013-03-04 01:42:00,
2013-03-03 19:51:00,72.0,9.0,29.73,SW,233,22.0,28.0,8,0.00,,,-99.99,0.000000,,2013-03-04 01:51:00,
2013-03-03 20:01:00,72.0,9.0,29.73,SW,233,22.0,28.0,8,0.00,,,-99.99,0.000000,,2013-03-04 02:01:00,
2013-03-03 20:11:00,71.0,10.0,29.72,SW,226,23.0,28.0,9,0.00,,,-99.99,0.000000,,2013-03-04 02:11:00,
2013-03-03 20:22:00,71.0,10.0,29.72,SW,226,23.0,28.0,9,0.00,,,-99.99,0.000000,,2013-03-04 02:22:00,
2013-03-03 20:32:00,71.0,10.0,29.72,SW,226,23.0,28.0,9,0.00,,,-99.99,0.000000,,2013-03-04 02:32:00,
2013-03-03 20:42:00,68.0,10.0,29.73,SW,230,21.0,27.0,10,0.00,,,-99.99,0.000000,,2013-03-04 02:42:00,
2013-03-03 20:52:00,68.0,10.0,29.73,SW,230,21.0,27.0,10,0.00,,,-99.99,0.000000,,2013-03-04 02:52:00,
2013-03-03 21:01:00,68.0,10.0,29.73,SW,230,21.0,27.0,10,0.00,,,-99.99,0.000000,,2013-03-04 03:01:00,
2013-03-03 21:11:00,66.0,10.0,29.73,SW,228,19.0,22.0,11,0.00,,,-99.99,0.000000,,2013-03-04 03:11:00,
2013-03-03 21:21:00,66.0,10.0,29.73,SW,228,19.0,22.0,11,0.00,,,-99.99,0.000000,,2013-03-04 03:21:00,
2013-03-03 21:32:00,66.0,10.0,29.73,SW,228,19.0,22.0,11,0.00,,,-99.99,0.000000,,2013-03-04 03:32:00,
2013-03-03 21:42:00,62.0,10.0,29.74,WSW,248,13.0,16.0,12,0.00,,,-99.99,0.000000,,2013-03-04 03:42:00,
2013-03-03 21:52:00,62.0,10.0,29.74,WSW,248,13.0,16.0,12,0.00,,,-99.99,0.000000,,2013-03-04 03:52:00,
2013-03-03 22:01:00,62.0,10.0,29.74,WSW,248,13.0,16.0,12,0.00,,,-99.99,0.000000,,2013-03-04 04:01:00,
2013-03-03 22:11:00,60.0,11.0,29.73,WSW,238,17.0,20.0,14,0.00,,,-99.99,0.000000,,2013-03-04 04:11:00,
2013-03-03 22:22:00,60.0,11.0,29.73,WSW,238,17.0,20.0,14,0.00,,,-99.99,0.000000,,2013-03-04 04:22:00,
2013-03-03 22:32:00,60.0,11.0,29.73,WSW,238,17.0,20.0,14,0.00,,,-99.99,0.000000,,2013-03-04 04:32:00,
2013-03-03 22:42:00,59.0,12.0,29.73,SW,233,15.0,20.0,15,0.00,,,-99.99,0.000000,,2013-03-04 04:42:00,
2013-03-03 22:51:00,59.0,12.0,29.73,SW,233,15.0,20.0,15,0.00,,,-99.99,0.000000,,2013-03-04 04:51:00,
2013-03-03 23:01:00,59.0,12.0,29.73,SW,233,15.0,20.0,15,0.00,,,-99.99,0.000000,,2013-03-04 05:01:00,
2013-03-03 23:11:00,58.0,13.0,29.73,WSW,238,16.0,19.0,16,0.00,,,-99.99,0.000000,,2013-03-04 05:11:00,
2013-03-03 23:22:00,58.0,13.0,29.73,WSW,238,16.0,19.0,16,0.00,,,-99.99,0.000000,,2013-03-04 05:22:00,
2013-03-03 23:31:00,58.0,13.0,29.73,WSW,238,16.0,19.0,16,0.00,,,-99.99,0.000000,,2013-03-04 05:31:00,
2013-03-03 23:42:00,57.0,13.0,29.73,WSW,243,12.0,15.0,17,0.00,,,-99.99,0.000000,,2013-03-04 05:42:00,
2013-03-03 23:52:00,57.0,13.0,29.73,WSW,243,12.0,15.0,17,0.00,,,-99.99,0.000000,,2013-03-04 05:52:00,